Thedford, Canada
Current Conditions -  °F | °C
As of 7:00 AM on Friday 21 Nov 2014 (Local Time) from CYZR Reporting Station
Clear Clear  
Wind Chill: -18°   Ceiling: Unl
Heat Index: -12°   Visibility: 9mi
Dew Point: -13°   Wind: 7mph
Humidity: 92%   Direction: 270°W
Pressure: 30.33"   Gusts: NA
Location:  43.17°N, 81.85°W
Report Text: CYZR 211200Z AUTO 27006KT 9SM CLR M12/M13 A3033 RMK SLP284
Loading
Personal Weather Stations






























Interactive Weather Map New forecast layout! Learn more

10-Day Weather Forecast

Advertisements
Track Severe Weather on mobile